Terminal Aerodrome Forecast
Issued by NWS

Home | Current Version | Previous Version | Text Only | Print | Product List | Glossary On
Versions: 1 2 3 4 5 6 7 8 9 10 11 12 13 14 15 16 17 18 19 20 21 22
000
FTUS43 KDLH 011730
TAFBRD
TAF
KBRD 011730Z 0118/0218 VRB05KT P6SM FEW100
     FM020400 14004KT P6SM VCSH SCT040 SCT120
     FM020800 16003KT 5SM BR FEW014
     FM021500 17011KT P6SM FEW040=

USA.gov is the U.S. government's official web portal to all federal, state and local government web resources and services.